createdAt,value
2022-11-13T00:02:19.318Z,102357.28
2022-11-13T00:04:46.484Z,102356.31
2022-11-13T00:07:13.182Z,102357.66
2022-11-13T00:09:39.937Z,102356.56
2022-11-13T00:12:06.684Z,102351.06
2022-11-13T00:14:39.588Z,102350.03
2022-11-13T00:17:07.713Z,102356.09
2022-11-13T00:19:34.384Z,102355.25
2022-11-13T00:22:01.048Z,102354.28
2022-11-13T00:24:30.367Z,102351.38
2022-11-13T00:26:57.007Z,102350.69
2022-11-13T00:29:23.693Z,102365.00
2022-11-13T00:31:50.368Z,102356.97
2022-11-13T00:34:45.695Z,102359.81
2022-11-13T00:37:03.816Z,102359.34
2022-11-13T00:39:30.522Z,102359.50
2022-11-13T00:41:57.159Z,102355.00
2022-11-13T00:44:23.822Z,102357.75
2022-11-13T00:46:50.461Z,102362.31
2022-11-13T00:49:17.763Z,102363.50
2022-11-13T00:51:44.475Z,102352.56
2022-11-13T00:54:11.208Z,102344.53
2022-11-13T00:56:37.923Z,102344.28
2022-11-13T00:59:04.641Z,102347.59
2022-11-13T01:01:31.398Z,102347.81
2022-11-13T01:03:58.351Z,102349.56
2022-11-13T01:06:28.142Z,102345.81
2022-11-13T01:08:59.863Z,102344.22
2022-11-13T01:11:30.956Z,102351.69
2022-11-13T01:13:58.163Z,102345.94
2022-11-13T01:16:29.516Z,102351.47
2022-11-13T01:18:57.517Z,102358.06
2022-11-13T01:21:28.432Z,102343.34
2022-11-13T01:23:57.018Z,102341.34
2022-11-13T01:26:28.316Z,102331.88
2022-11-13T01:28:57.906Z,102332.34
2022-11-13T01:31:30.461Z,102330.63
2022-11-13T01:34:00.282Z,102333.00
2022-11-13T01:36:29.719Z,102335.56
2022-11-13T01:38:57.411Z,102327.78
2022-11-13T01:41:33.704Z,102325.66
2022-11-13T01:44:01.845Z,102321.88
2022-11-13T01:46:42.235Z,102310.28
2022-11-13T01:49:11.616Z,102312.75
2022-11-13T01:51:55.814Z,102309.66
2022-11-13T01:54:29.991Z,102317.00
2022-11-13T01:56:59.212Z,102318.94
2022-11-13T01:59:40.469Z,102322.31
2022-11-13T02:02:08.349Z,102322.53
2022-11-13T02:04:36.174Z,102331.97
2022-11-13T02:07:09.592Z,102323.16
2022-11-13T02:09:42.481Z,102327.47
2022-11-13T02:12:15.643Z,102321.50
2022-11-13T02:14:50.450Z,102320.34
2022-11-13T02:17:34.131Z,102314.19
2022-11-13T02:20:05.952Z,102311.59
2022-11-13T02:23:24.305Z,102308.06
2022-11-13T02:25:54.594Z,102307.56
2022-11-13T02:28:21.556Z,102308.53
2022-11-13T02:30:51.447Z,102294.16
2022-11-13T02:33:33.358Z,102288.47
2022-11-13T02:36:00.931Z,102284.00
2022-11-13T02:38:27.979Z,102282.78
2022-11-13T02:40:54.879Z,102287.38
2022-11-13T02:43:21.595Z,102279.41
2022-11-13T02:45:48.223Z,102286.94
2022-11-13T02:48:14.835Z,102280.72
2022-11-13T02:50:41.470Z,102287.13
2022-11-13T02:53:08.665Z,102286.34
2022-11-13T02:55:35.821Z,102275.69
2022-11-13T02:58:02.654Z,102283.19
2022-11-13T03:00:31.921Z,102280.78
2022-11-13T03:03:01.311Z,102275.59
2022-11-13T03:05:27.969Z,102272.50
2022-11-13T03:07:54.740Z,102272.06
2022-11-13T03:10:21.424Z,102266.09
2022-11-13T03:12:50.735Z,102263.41
2022-11-13T03:15:17.598Z,102257.53
2022-11-13T03:17:45.472Z,102257.38
2022-11-13T03:20:12.228Z,102261.59
2022-11-13T03:22:38.884Z,102258.25
2022-11-13T03:25:10.504Z,102266.69
2022-11-13T03:27:37.835Z,102256.63
2022-11-13T03:30:08.405Z,102249.25
2022-11-13T03:32:35.324Z,102252.97
2022-11-13T03:35:01.939Z,102252.63
2022-11-13T03:37:28.691Z,102249.97
2022-11-13T03:39:55.365Z,102246.31
2022-11-13T03:42:22.163Z,102247.34
2022-11-13T03:44:48.804Z,102249.25
2022-11-13T03:47:15.901Z,102243.38
2022-11-13T03:49:42.560Z,102245.00
2022-11-13T03:52:09.459Z,102245.19
2022-11-13T03:54:36.224Z,102243.13
2022-11-13T03:57:03.316Z,102246.69
2022-11-13T03:59:30.165Z,102236.56
2022-11-13T04:01:57.128Z,102232.13
2022-11-13T04:04:29.851Z,102245.72
2022-11-13T04:06:57.047Z,102240.81
2022-11-13T04:09:23.757Z,102239.25
2022-11-13T04:11:50.432Z,102235.97
2022-11-13T04:14:17.139Z,102233.34
2022-11-13T04:16:43.827Z,102235.25
2022-11-13T04:19:10.427Z,102233.34
2022-11-13T04:21:37.218Z,102223.41
2022-11-13T04:24:04.420Z,102216.69
2022-11-13T04:26:31.106Z,102215.06
2022-11-13T04:28:57.799Z,102213.56
2022-11-13T04:31:24.423Z,102216.06
2022-11-13T04:33:51.130Z,102217.09
2022-11-13T04:36:17.718Z,102210.56
2022-11-13T04:38:44.304Z,102207.09
2022-11-13T04:41:32.087Z,102209.00
2022-11-13T04:43:59.099Z,102211.59
2022-11-13T04:46:25.738Z,102210.88
2022-11-13T04:48:52.557Z,102209.78
2022-11-13T04:51:19.359Z,102215.47
2022-11-13T04:53:46.068Z,102198.81
2022-11-13T04:56:12.736Z,102195.59
2022-11-13T04:58:39.365Z,102196.47
2022-11-13T05:01:06.064Z,102197.75
2022-11-13T05:03:32.717Z,102196.78
2022-11-13T05:06:10.102Z,102200.38
2022-11-13T05:08:37.291Z,102203.56
2022-11-13T05:11:04.320Z,102193.78
2022-11-13T05:13:35.287Z,102201.16
2022-11-13T05:16:10.763Z,102197.50
2022-11-13T05:18:39.612Z,102190.31
2022-11-13T05:21:10.249Z,102185.94
2022-11-13T05:23:37.381Z,102187.03
2022-11-13T05:26:13.175Z,102189.66
2022-11-13T05:28:40.314Z,102178.16
2022-11-13T05:31:16.411Z,102184.09
2022-11-13T05:33:44.168Z,102175.63
2022-11-13T05:36:14.927Z,102183.06
2022-11-13T05:38:43.045Z,102180.66
2022-11-13T05:41:21.834Z,102179.47
2022-11-13T05:43:51.751Z,102181.75
2022-11-13T05:46:27.418Z,102172.28
2022-11-13T05:49:01.503Z,102178.56
2022-11-13T05:51:33.663Z,102160.72
2022-11-13T05:54:03.637Z,102170.91
2022-11-13T05:56:35.731Z,102167.00
2022-11-13T05:59:05.410Z,102166.72
2022-11-13T06:01:41.313Z,102156.19
2022-11-13T06:04:11.163Z,102165.78
2022-11-13T06:06:37.935Z,102164.66
2022-11-13T06:09:10.099Z,102160.31
2022-11-13T06:11:37.982Z,102157.28
2022-11-13T06:14:04.736Z,102149.06
2022-11-13T06:16:38.058Z,102152.78
2022-11-13T06:19:09.614Z,102148.22
2022-11-13T06:21:40.791Z,102140.78
2022-11-13T06:24:11.833Z,102151.50
2022-11-13T06:26:38.823Z,102150.47
2022-11-13T06:29:08.510Z,102157.72
2022-11-13T06:31:37.836Z,102147.94
2022-11-13T06:34:10.453Z,102135.59
2022-11-13T06:36:38.140Z,102142.50
2022-11-13T06:39:12.196Z,102136.28
2022-11-13T06:41:40.120Z,102148.06
2022-11-13T06:44:09.965Z,102156.94
2022-11-13T06:46:39.543Z,102148.84
2022-11-13T06:49:08.717Z,102159.63
2022-11-13T06:51:35.473Z,102164.13
2022-11-13T06:54:02.265Z,102148.91
2022-11-13T06:56:29.015Z,102149.84
2022-11-13T07:04:19.956Z,102145.44
2022-11-13T07:06:46.787Z,102148.06
2022-11-13T08:29:55.136Z,102169.91
2022-11-13T08:32:22.550Z,102174.41
2022-11-13T08:34:49.331Z,102172.69
2022-11-13T08:37:16.116Z,102176.41
2022-11-13T08:39:42.789Z,102182.75
2022-11-13T08:42:09.718Z,102179.38
2022-11-13T08:44:36.746Z,102184.19
2022-11-13T08:47:03.936Z,102188.25
2022-11-13T08:49:30.754Z,102192.94
2022-11-13T08:51:57.597Z,102189.97
2022-11-13T08:54:24.308Z,102184.22
2022-11-13T08:56:56.133Z,102177.63
2022-11-13T08:59:24.621Z,102182.81
2022-11-13T09:01:53.376Z,102181.75
2022-11-13T09:04:20.005Z,102188.44
2022-11-13T09:06:46.677Z,102187.97
2022-11-13T09:09:13.405Z,102192.00
2022-11-13T09:11:40.061Z,102185.66
2022-11-13T09:14:06.770Z,102197.09
2022-11-13T09:16:33.590Z,102184.50
2022-11-13T09:19:00.466Z,102189.13
2022-11-13T09:21:30.071Z,102195.13
2022-11-13T09:24:01.441Z,102181.06
2022-11-13T09:26:28.081Z,102187.94
2022-11-13T09:28:54.733Z,102182.31
2022-11-13T09:31:21.428Z,102181.91
2022-11-13T09:33:48.055Z,102186.53
2022-11-13T09:36:16.357Z,102185.19
2022-11-13T09:38:43.616Z,102183.28
2022-11-13T09:41:18.149Z,102176.66
2022-11-13T09:44:00.048Z,102185.94
2022-11-13T09:46:57.487Z,102180.00
2022-11-13T09:49:40.789Z,102184.59
2022-11-13T09:52:21.645Z,102190.00
2022-11-13T09:54:48.478Z,102183.09
2022-11-13T09:57:47.002Z,102190.09
2022-11-13T10:00:20.242Z,102190.38
2022-11-13T10:03:12.113Z,102191.72
2022-11-13T10:06:18.796Z,102176.53
2022-11-13T10:09:03.634Z,102173.56
2022-11-13T10:12:02.986Z,102172.75
2022-11-13T10:14:42.139Z,102177.53
2022-11-13T10:17:25.349Z,102175.63
2022-11-13T10:20:16.085Z,102176.47
2022-11-13T10:23:01.210Z,102173.50
2022-11-13T10:25:37.054Z,102176.09
2022-11-13T10:31:16.750Z,102166.97
2022-11-13T10:33:46.593Z,102164.50
2022-11-13T10:36:59.800Z,102167.34
2022-11-13T10:39:26.602Z,102166.78
2022-11-13T10:41:57.707Z,102164.97
2022-11-13T10:44:35.416Z,102160.81
2022-11-13T10:47:42.247Z,102157.31
2022-11-13T10:50:38.283Z,102160.94
2022-11-13T10:53:17.986Z,102158.44
2022-11-13T10:55:55.893Z,102164.38
2022-11-13T10:58:23.239Z,102151.03
2022-11-13T11:00:50.216Z,102154.41
2022-11-13T11:03:24.542Z,102154.41
2022-11-13T11:05:54.554Z,102141.66
2022-11-13T11:08:31.226Z,102148.94
2022-11-13T11:11:35.783Z,102152.31
2022-11-13T11:14:30.599Z,102149.72
2022-11-13T11:17:02.070Z,102147.78
2022-11-13T11:19:37.146Z,102142.53
2022-11-13T11:22:20.801Z,102139.63
2022-11-13T11:25:13.105Z,102139.31
2022-11-13T11:28:47.842Z,102129.84
2022-11-13T11:31:52.502Z,102127.81
2022-11-13T11:35:04.920Z,102114.00
2022-11-13T11:37:43.923Z,102115.78
2022-11-13T11:40:32.843Z,102109.78
2022-11-13T11:43:19.891Z,102110.09
2022-11-13T11:45:47.462Z,102104.88
2022-11-13T11:48:31.252Z,102108.69
2022-11-13T11:51:54.303Z,102106.41
2022-11-13T11:54:49.309Z,102102.44
2022-11-13T11:57:46.290Z,102100.19
2022-11-13T12:00:19.609Z,102101.09
2022-11-13T12:03:29.244Z,102104.53
2022-11-13T12:06:24.336Z,102100.19
2022-11-13T12:09:24.729Z,102093.81
2022-11-13T12:12:36.676Z,102091.91
2022-11-13T12:15:17.804Z,102084.66
2022-11-13T12:18:39.520Z,102075.63
2022-11-13T12:24:39.450Z,102064.03
2022-11-13T12:27:34.367Z,102065.72
2022-11-13T12:30:03.985Z,102050.19
2022-11-13T12:32:55.170Z,102050.91
2022-11-13T12:35:26.766Z,102053.19
2022-11-13T12:38:36.560Z,102045.94
2022-11-13T12:41:14.786Z,102043.47
2022-11-13T12:44:15.168Z,102036.28
2022-11-13T12:46:43.888Z,102023.06
2022-11-13T12:49:37.297Z,102023.91
2022-11-13T12:52:20.514Z,102024.00
2022-11-13T12:54:47.240Z,102025.09
2022-11-13T12:57:13.867Z,102008.41
2022-11-13T12:59:48.333Z,102004.56
2022-11-13T13:02:14.858Z,101996.03
2022-11-13T13:05:27.295Z,101998.72
2022-11-13T13:08:49.206Z,101991.09
2022-11-13T13:11:46.275Z,102001.50
2022-11-13T13:14:58.340Z,101996.91
2022-11-13T13:17:27.771Z,101993.44
2022-11-13T13:20:19.924Z,102000.53
2022-11-13T13:22:59.728Z,102004.22
2022-11-13T13:25:35.945Z,102006.75
2022-11-13T13:28:23.035Z,102004.75
2022-11-13T13:31:33.540Z,102004.75
2022-11-13T13:34:48.749Z,102001.06
2022-11-13T13:37:41.085Z,101995.59
2022-11-13T13:40:42.974Z,101985.91
2022-11-13T13:44:16.285Z,101992.91
2022-11-13T13:46:42.991Z,101985.78
2022-11-13T13:49:22.089Z,101988.38
2022-11-13T13:51:56.096Z,101984.81
2022-11-13T13:54:30.703Z,101981.03
2022-11-13T13:57:01.818Z,101977.84
2022-11-13T13:59:37.627Z,101983.72
2022-11-13T14:02:24.665Z,101983.22
2022-11-13T14:04:55.244Z,101981.91
2022-11-13T14:07:32.935Z,101976.84
2022-11-13T14:10:13.085Z,101970.63
2022-11-13T14:12:45.970Z,101967.06
2022-11-13T14:15:34.711Z,101970.38
2022-11-13T14:18:18.081Z,101979.44
2022-11-13T14:20:56.045Z,101974.16
2022-11-13T14:23:34.304Z,101967.91
2022-11-13T14:26:03.350Z,101969.88
2022-11-13T14:28:44.152Z,101973.75
2022-11-13T14:31:15.661Z,101971.19
2022-11-13T14:33:50.202Z,101970.28
2022-11-13T14:36:37.340Z,101963.09
2022-11-13T14:39:05.233Z,101956.09
2022-11-13T14:41:57.467Z,101955.56
2022-11-13T14:44:32.733Z,101947.56
2022-11-13T14:47:19.973Z,101952.03
2022-11-13T14:49:46.682Z,101949.63
2022-11-13T14:52:35.688Z,101948.78
2022-11-13T14:55:15.261Z,101946.09
2022-11-13T14:57:50.203Z,101947.28
2022-11-13T15:00:29.718Z,101956.22
2022-11-13T15:02:57.022Z,101944.47
2022-11-13T15:05:23.782Z,101953.53
2022-11-13T15:07:55.164Z,101951.69
2022-11-13T15:10:27.126Z,101956.22
2022-11-13T15:12:54.161Z,101950.06
2022-11-13T15:15:30.355Z,101949.13
2022-11-13T15:17:57.486Z,101961.59
2022-11-13T15:20:30.663Z,101957.19
2022-11-13T15:23:17.720Z,101942.00
2022-11-13T15:25:44.318Z,101943.00
2022-11-13T15:28:13.252Z,101946.63
2022-11-13T15:30:40.671Z,101942.25
2022-11-13T15:33:16.479Z,101934.59
2022-11-13T15:35:44.430Z,101924.59
2022-11-13T15:38:12.167Z,101930.94
2022-11-13T15:40:39.583Z,101923.09
2022-11-13T15:43:23.006Z,101931.91
2022-11-13T15:45:50.004Z,101924.94
2022-11-13T15:48:16.725Z,101922.13
2022-11-13T15:50:43.715Z,101927.63
2022-11-13T15:53:14.462Z,101919.53
2022-11-13T15:55:42.355Z,101924.06
2022-11-13T15:58:18.783Z,101924.81
2022-11-13T16:00:46.049Z,101922.13
2022-11-13T16:03:12.912Z,101918.56
2022-11-13T16:05:40.642Z,101911.47
2022-11-13T16:08:15.644Z,101913.31
2022-11-13T16:10:55.183Z,101913.41
2022-11-13T16:13:22.031Z,101898.34
2022-11-13T16:15:49.381Z,101913.31
2022-11-13T16:18:30.569Z,101906.09
2022-11-13T16:20:58.144Z,101906.19
2022-11-13T16:23:28.069Z,101906.19
2022-11-13T16:25:55.273Z,101905.34
2022-11-13T16:28:21.985Z,101904.34
2022-11-13T16:30:52.749Z,101898.25
2022-11-13T16:33:19.468Z,101893.59
2022-11-13T16:35:46.174Z,101891.78
2022-11-13T16:38:19.288Z,101889.09
2022-11-13T16:40:48.830Z,101891.66
2022-11-13T16:43:16.601Z,101888.03
2022-11-13T16:45:43.362Z,101878.22
2022-11-13T16:48:15.944Z,101881.88
2022-11-13T16:50:43.027Z,101879.94
2022-11-13T16:53:15.705Z,101889.72
2022-11-13T16:55:51.558Z,101877.25
2022-11-13T16:58:18.380Z,101873.72
2022-11-13T17:00:45.031Z,101871.03
2022-11-13T17:03:11.678Z,101874.44
2022-11-13T17:05:38.341Z,101870.88
2022-11-13T17:08:06.041Z,101863.56
2022-11-13T17:10:33.440Z,101868.09
2022-11-13T17:13:00.965Z,101863.69
2022-11-13T17:15:27.877Z,101864.44
2022-11-13T17:17:58.659Z,101859.69
2022-11-13T17:20:26.534Z,101857.25
2022-11-13T17:22:53.557Z,101854.41
2022-11-13T17:25:23.195Z,101862.28
2022-11-13T17:27:49.815Z,101853.31
2022-11-13T17:30:17.061Z,101852.47
2022-11-13T17:32:44.080Z,101845.06
2022-11-13T17:35:13.201Z,101845.91
2022-11-13T17:37:40.223Z,101848.16
2022-11-13T17:40:11.467Z,101850.00
2022-11-13T17:42:38.102Z,101842.97
2022-11-13T17:45:05.497Z,101847.41
2022-11-13T17:47:34.402Z,101842.78
2022-11-13T17:50:06.784Z,101840.06
2022-11-13T17:52:36.197Z,101842.63
2022-11-13T17:55:06.090Z,101836.22
2022-11-13T17:57:33.676Z,101838.03
2022-11-13T18:00:00.275Z,101830.84
2022-11-13T18:02:27.240Z,101823.63
2022-11-13T18:04:58.262Z,101826.06
2022-11-13T18:07:25.186Z,101832.94
2022-11-13T18:09:51.891Z,101826.72
2022-11-13T18:12:18.450Z,101822.06
2022-11-13T18:14:46.065Z,101823.69
2022-11-13T18:17:12.991Z,101817.44
2022-11-13T18:19:39.614Z,101818.06
2022-11-13T18:22:22.393Z,101817.19
2022-11-13T18:24:49.328Z,101818.91
2022-11-13T18:27:16.026Z,101812.47
2022-11-13T18:29:42.738Z,101812.31
2022-11-13T18:32:12.467Z,101802.31
2022-11-13T18:34:45.687Z,101803.16
2022-11-13T18:37:15.098Z,101800.25
2022-11-13T18:39:41.805Z,101809.19
2022-11-13T18:42:08.400Z,101803.78
2022-11-13T18:44:36.551Z,101793.97
2022-11-13T18:47:03.589Z,101798.06
2022-11-13T18:49:30.230Z,101797.94
2022-11-13T18:51:56.925Z,101795.38
2022-11-13T18:54:23.575Z,101797.94
2022-11-13T18:56:50.245Z,101792.41
2022-11-13T18:59:16.945Z,101796.09
2022-11-13T19:01:43.708Z,101794.16
2022-11-13T19:04:27.133Z,101785.44
2022-11-13T19:06:53.914Z,101786.09
2022-11-13T19:09:21.379Z,101782.28
2022-11-13T19:11:48.321Z,101784.97
2022-11-13T19:14:18.330Z,101790.38
2022-11-13T19:16:46.030Z,101776.81
2022-11-13T19:19:21.595Z,101778.50
2022-11-13T19:21:51.057Z,101776.66
2022-11-13T19:24:18.037Z,101781.19
2022-11-13T19:26:45.879Z,101774.09
2022-11-13T19:29:13.715Z,101776.81
2022-11-13T19:31:41.061Z,101778.50
2022-11-13T20:01:27.599Z,101764.09
2022-11-13T20:04:02.358Z,101760.41
2022-11-13T20:28:19.345Z,101734.69
2022-11-13T20:30:45.992Z,101731.13
2022-11-13T20:33:12.829Z,101731.13
2022-11-13T20:35:39.460Z,101728.44
2022-11-13T20:38:06.201Z,101733.72
2022-11-13T20:43:13.546Z,101736.28
2022-11-13T20:59:22.886Z,101733.19
2022-11-13T21:01:49.697Z,101734.06
2022-11-13T21:04:16.873Z,101730.41
2022-11-13T21:06:43.832Z,101732.25
2022-11-13T21:11:51.788Z,101738.72
2022-11-13T21:14:18.544Z,101735.88
2022-11-13T21:16:45.131Z,101733.19
2022-11-13T21:19:12.245Z,101732.44
2022-11-13T21:21:40.212Z,101728.91
2022-11-13T21:24:14.380Z,101725.25
2022-11-13T21:26:40.952Z,101737.84
2022-11-13T21:29:12.663Z,101722.69
2022-11-13T21:31:39.284Z,101719.13
2022-11-13T21:34:05.985Z,101722.78
2022-11-13T21:36:32.570Z,101721.94
2022-11-13T21:38:59.149Z,101721.31
2022-11-13T21:41:25.992Z,101707.00
2022-11-13T21:43:53.130Z,101715.06
2022-11-13T21:46:23.161Z,101723.28
2022-11-13T21:48:58.812Z,101720.19
2022-11-13T21:51:26.520Z,101704.91
2022-11-13T21:54:20.042Z,101725.81
2022-11-13T21:56:46.743Z,101719.47
2022-11-13T21:59:13.365Z,101716.13
2022-11-13T22:01:40.026Z,101710.00
2022-11-13T22:04:07.070Z,101705.63
2022-11-13T22:06:39.666Z,101709.16
2022-11-13T22:09:35.659Z,101704.88
2022-11-13T22:12:02.328Z,101704.97
2022-11-13T22:14:28.981Z,101699.25
2022-11-13T22:16:55.628Z,101702.78
2022-11-13T22:19:26.651Z,101702.94
2022-11-13T22:21:54.650Z,101697.66
2022-11-13T22:24:21.377Z,101693.84
2022-11-13T22:26:48.404Z,101690.22
2022-11-13T22:29:15.492Z,101676.75
2022-11-13T22:31:42.903Z,101682.34
2022-11-13T22:34:09.561Z,101682.25
2022-11-13T22:36:37.623Z,101686.53
2022-11-13T22:39:06.002Z,101682.88
2022-11-13T22:41:36.300Z,101676.63
2022-11-13T22:44:14.268Z,101667.09
2022-11-13T22:46:42.439Z,101659.22
2022-11-13T22:49:12.682Z,101662.03
2022-11-13T22:51:41.756Z,101660.97
2022-11-13T22:54:12.699Z,101653.09
2022-11-13T22:56:41.705Z,101662.03
2022-11-13T22:59:12.650Z,101659.22
2022-11-13T23:01:42.941Z,101656.53
2022-11-13T23:04:13.963Z,101651.91
2022-11-13T23:06:41.557Z,101651.91
2022-11-13T23:09:08.574Z,101644.81
2022-11-13T23:11:40.510Z,101642.34
2022-11-13T23:14:19.801Z,101638.81
2022-11-13T23:16:46.565Z,101640.50
2022-11-13T23:19:13.770Z,101642.34
2022-11-13T23:21:42.993Z,101639.81
2022-11-13T23:24:11.563Z,101631.72
2022-11-13T23:26:39.228Z,101634.41
2022-11-13T23:29:06.087Z,101626.44
2022-11-13T23:31:32.702Z,101628.28
2022-11-13T23:33:59.448Z,101624.69
2022-11-13T23:36:27.430Z,101629.38
2022-11-13T23:38:54.035Z,101623.00
2022-11-13T23:41:20.594Z,101620.31
2022-11-13T23:46:36.934Z,101617.59
2022-11-13T23:49:03.627Z,101608.78
2022-11-13T23:51:30.293Z,101607.31
2022-11-13T23:53:57.085Z,101604.63
2022-11-13T23:56:23.721Z,101603.03
2022-11-13T23:58:53.228Z,101589.69
